Time;durP1;ratioP1;P1;durP2;ratioP2;P2;SDS_P1;SDS_P2;PMS_P1;PMS_P2;Temp;Humidity;BMP_temperature;BMP_pressure;BME280_temperature;BME280_humidity;BME280_pressure;Samples;Min_cycle;Max_cycle;Signal;HPM_P1;HPM_P2
2020/12/25 00:01:46;;;;;;;13.80;8.23;;;;;;;;;;5135351;28;20191;-56
2020/12/25 00:04:28;;;;;;;;;;;;;;;;;;;;;
2020/12/25 00:07:08;;;;;;;18.65;7.22;;;;;;;;;;5135216;27;20230;-58
2020/12/25 00:09:38;;;;;;;10.02;6.38;;;;;;;;;;5135573;28;20437;-52
2020/12/25 00:12:07;;;;;;;16.85;5.47;;;;;;;;;;5135639;28;20206;-48
2020/12/25 00:14:37;;;;;;;11.52;5.93;;;;;;;;;;5136058;28;20231;-55
2020/12/25 00:17:07;;;;;;;8.98;6.00;;;;;;;;;;5133098;28;20290;-54
2020/12/25 00:19:54;;;;;;;11.43;8.20;;;;;;;;;;5127275;28;20182;-54
2020/12/25 00:22:24;;;;;;;11.48;6.97;;;;;;;;;;5129403;28;20225;-55
2020/12/25 00:25:17;;;;;;;14.73;7.10;;;;;;;;;;5131386;28;20425;-51
2020/12/25 00:28:05;;;;;;;11.30;6.97;;;;;;;;;;5131289;28;20221;-56
2020/12/25 00:30:32;;;;;;;14.18;6.75;;;;;;;;;;5132527;28;20214;-54
2020/12/25 00:32:58;;;;;;;11.30;7.90;;;;;;;;;;5133293;28;20203;-52
2020/12/25 00:35:40;;;;;;;13.35;8.10;;;;;;;;;;5133933;28;20258;-58
2020/12/25 00:38:18;;;;;;;14.07;7.22;;;;;;;;;;5123202;28;20226;-53
2020/12/25 00:40:45;;;;;;;9.52;6.20;;;;;;;;;;5133838;27;20270;-51
2020/12/25 00:43:16;;;;;;;9.50;6.40;;;;;;;;;;5133246;28;20198;-54
2020/12/25 00:45:43;;;;;;;11.05;7.78;;;;;;;;;;5135253;28;20195;-54
2020/12/25 00:48:11;;;;;;;12.23;8.10;;;;;;;;;;5135369;28;20200;-58
2020/12/25 00:50:45;;;;;;;15.30;8.77;;;;;;;;;;5134098;28;20234;-55
2020/12/25 00:53:13;;;;;;;10.98;9.45;;;;;;;;;;5134549;28;20247;-53
2020/12/25 00:55:59;;;;;;;10.27;7.70;;;;;;;;;;5134883;28;20190;-58
2020/12/25 00:58:30;;;;;;;14.32;7.85;;;;;;;;;;5132984;28;20222;-55
2020/12/25 01:01:16;;;;;;;12.95;7.47;;;;;;;;;;5134966;28;20187;-53
2020/12/25 01:06:11;;;;;;;13.63;9.27;;;;;;;;;;5135018;28;20221;-54
2020/12/25 01:08:49;;;;;;;13.82;8.10;;;;;;;;;;5133629;28;20186;-54
2020/12/25 01:11:16;;;;;;;15.15;7.82;;;;;;;;;;5133958;28;20218;-55
2020/12/25 01:13:49;;;;;;;15.30;7.88;;;;;;;;;;5134335;27;20207;-46
2020/12/25 01:19:23;;;;;;;9.35;7.70;;;;;;;;;;5107540;28;20194;-54
2020/12/25 01:21:55;;;;;;;13.07;8.18;;;;;;;;;;5134255;28;20202;-56
2020/12/25 01:24:23;;;;;;;11.10;7.32;;;;;;;;;;5130307;28;20199;-56
2020/12/25 01:26:56;;;;;;;13.50;7.32;;;;;;;;;;5133920;28;20203;-56
2020/12/25 01:29:24;;;;;;;13.38;8.52;;;;;;;;;;5131937;28;20219;-49
2020/12/25 01:31:51;;;;;;;10.43;7.10;;;;;;;;;;5121752;28;20245;-52
2020/12/25 01:34:17;;;;;;;12.50;7.57;;;;;;;;;;5120507;28;20203;-47
2020/12/25 01:37:06;;;;;;;9.95;6.35;;;;;;;;;;5132830;28;20216;-52
2020/12/25 01:39:53;;;;;;;12.43;7.40;;;;;;;;;;5116748;28;20232;-58
2020/12/25 01:42:24;;;;;;;9.63;7.05;;;;;;;;;;5102955;28;20218;-57
2020/12/25 01:45:01;;;;;;;13.23;8.95;;;;;;;;;;5113732;28;20196;-47
2020/12/25 01:47:36;;;;;;;10.80;7.93;;;;;;;;;;5113836;28;20191;-48
2020/12/25 01:53:18;;;;;;;11.85;8.20;;;;;;;;;;5132960;28;20186;-58
2020/12/25 01:56:04;;;;;;;15.40;8.52;;;;;;;;;;5133352;28;20245;-58
2020/12/25 01:59:02;;;;;;;13.15;7.60;;;;;;;;;;5129977;27;20195;-50
2020/12/25 02:01:36;;;;;;;12.10;8.88;;;;;;;;;;5118080;28;20213;-56
2020/12/25 02:04:03;;;;;;;28.80;11.65;;;;;;;;;;5125758;28;20239;-60
2020/12/25 02:06:37;;;;;;;14.75;7.95;;;;;;;;;;5137361;28;20383;-47
2020/12/25 02:09:04;;;;;;;14.70;9.52;;;;;;;;;;5138612;28;20199;-54
2020/12/25 02:12:11;;;;;;;12.10;8.90;;;;;;;;;;5119561;28;20223;-53
2020/12/25 02:14:45;;;;;;;10.70;8.73;;;;;;;;;;5097722;28;20195;-52
2020/12/25 02:17:23;;;;;;;17.92;9.90;;;;;;;;;;5099176;28;20199;-55
2020/12/25 02:20:00;;;;;;;14.45;8.55;;;;;;;;;;5096575;28;20208;-50
2020/12/25 02:22:34;;;;;;;15.07;9.05;;;;;;;;;;5096651;28;20246;-50
2020/12/25 02:25:01;;;;;;;17.80;8.60;;;;;;;;;;5096865;28;20188;-51
2020/12/25 02:27:37;;;;;;;16.45;9.73;;;;;;;;;;5096862;28;20315;-51
2020/12/25 02:30:08;;;;;;;15.55;8.48;;;;;;;;;;5095625;28;20234;-60
2020/12/25 02:32:54;;;;;;;12.90;7.55;;;;;;;;;;5109849;28;20245;-48
2020/12/25 02:35:21;;;;;;;11.10;6.95;;;;;;;;;;5136893;28;20191;-58
2020/12/25 02:37:55;;;;;;;14.45;8.73;;;;;;;;;;5136025;28;20207;-60
2020/12/25 02:40:23;;;;;;;17.98;8.50;;;;;;;;;;5119164;28;20208;-52
2020/12/25 02:43:02;;;;;;;10.68;6.53;;;;;;;;;;5133304;28;20226;-52
2020/12/25 02:45:28;;;;;;;10.15;6.47;;;;;;;;;;5136688;28;20191;-51
2020/12/25 02:47:55;;;;;;;12.57;7.45;;;;;;;;;;5136956;28;20211;-54
2020/12/25 02:50:37;;;;;;;11.32;6.57;;;;;;;;;;5135233;28;20240;-57
2020/12/25 02:56:17;;;;;;;9.50;6.55;;;;;;;;;;5137019;28;20229;-53
2020/12/25 03:01:54;;;;;;;13.75;6.10;;;;;;;;;;5108823;28;20241;-50
2020/12/25 03:04:49;;;;;;;15.55;7.88;;;;;;;;;;5135603;28;20191;-58
2020/12/25 03:10:34;;;;;;;9.60;5.70;;;;;;;;;;5078179;28;20222;-54
2020/12/25 03:16:35;;;;;;;10.48;6.00;;;;;;;;;;5063016;28;20305;-60
2020/12/25 03:19:09;;;;;;;11.93;7.57;;;;;;;;;;5051716;28;20205;-59
2020/12/25 03:21:51;;;;;;;13.55;7.70;;;;;;;;;;5052574;28;20244;-57
2020/12/25 03:24:20;;;;;;;11.48;5.63;;;;;;;;;;5054143;28;20240;-51
2020/12/25 03:26:55;;;;;;;8.70;4.57;;;;;;;;;;5052614;28;20216;-56
2020/12/25 03:32:25;;;;;;;10.63;5.80;;;;;;;;;;5053154;28;20177;-49
2020/12/25 03:34:54;;;;;;;9.57;6.00;;;;;;;;;;5053938;28;20236;-53
2020/12/25 03:37:21;;;;;;;11.73;5.28;;;;;;;;;;5090830;28;20235;-53
2020/12/25 03:39:49;;;;;;;8.52;6.18;;;;;;;;;;5114877;28;20197;-55
2020/12/25 03:42:16;;;;;;;10.75;6.18;;;;;;;;;;5115390;28;20338;-50
2020/12/25 03:44:44;;;;;;;11.75;6.72;;;;;;;;;;5115450;28;20448;-49
2020/12/25 03:47:29;;;;;;;9.25;5.20;;;;;;;;;;5115644;28;20230;-57
2020/12/25 03:49:58;;;;;;;8.73;4.90;;;;;;;;;;5123835;27;20260;-52
2020/12/25 03:52:26;;;;;;;7.00;4.82;;;;;;;;;;5135770;28;20353;-56
2020/12/25 03:54:53;;;;;;;13.57;4.45;;;;;;;;;;5135392;28;20217;-55
2020/12/25 03:57:40;;;;;;;9.65;6.07;;;;;;;;;;5136049;28;20194;-51
2020/12/25 04:03:14;;;;;;;10.85;4.97;;;;;;;;;;5134090;28;20305;-53
2020/12/25 04:06:00;;;;;;;14.77;4.93;;;;;;;;;;5134357;28;20190;-55
2020/12/25 04:08:28;;;;;;;8.75;5.20;;;;;;;;;;5134510;28;20211;-55
2020/12/25 04:10:59;;;;;;;12.10;4.57;;;;;;;;;;5133560;28;20248;-55
2020/12/25 04:13:27;;;;;;;11.15;4.30;;;;;;;;;;5128964;28;20454;-51
2020/12/25 04:16:04;;;;;;;11.07;4.70;;;;;;;;;;5137630;28;20193;-54
2020/12/25 04:18:50;;;;;;;12.38;4.78;;;;;;;;;;5133471;28;20214;-54
2020/12/25 04:21:26;;;;;;;9.63;3.63;;;;;;;;;;5156261;27;20209;-64
2020/12/25 04:26:38;;;;;;;8.27;3.38;;;;;;;;;;5137342;27;20225;-56
2020/12/25 04:29:17;;;;;;;9.48;4.65;;;;;;;;;;5135510;28;20191;-54
2020/12/25 04:32:00;;;;;;;9.07;4.35;;;;;;;;;;5135191;28;20206;-47
2020/12/25 04:34:26;;;;;;;9.05;4.30;;;;;;;;;;5129035;28;20192;-56
2020/12/25 04:37:03;;;;;;;9.85;3.92;;;;;;;;;;5134871;28;20205;-56
2020/12/25 04:39:38;;;;;;;9.93;3.92;;;;;;;;;;5133151;28;20236;-53
2020/12/25 04:44:55;;;;;;;12.25;4.35;;;;;;;;;;5115185;28;20255;-58
2020/12/25 04:47:22;;;;;;;9.20;4.35;;;;;;;;;;5134784;28;20170;-55
2020/12/25 04:49:50;;;;;;;11.52;4.22;;;;;;;;;;5132974;28;20235;-53
2020/12/25 04:52:54;;;;;;;13.57;3.75;;;;;;;;;;5136156;28;20195;-55
2020/12/25 04:55:21;;;;;;;4.68;3.08;;;;;;;;;;5135731;27;20196;-49
2020/12/25 04:57:48;;;;;;;8.35;3.83;;;;;;;;;;5134575;28;20206;-55
2020/12/25 05:00:23;;;;;;;6.63;2.85;;;;;;;;;;5136317;28;20218;-55
2020/12/25 05:02:50;;;;;;;7.82;3.60;;;;;;;;;;5135184;27;20242;-56
2020/12/25 05:05:17;;;;;;;13.45;3.63;;;;;;;;;;5135245;28;20186;-57
2020/12/25 05:07:47;;;;;;;6.65;4.05;;;;;;;;;;5135606;28;20210;-56
2020/12/25 05:10:14;;;;;;;9.68;3.40;;;;;;;;;;5135319;28;20256;-50
2020/12/25 05:12:42;;;;;;;8.73;3.83;;;;;;;;;;5135992;28;20210;-59
2020/12/25 05:15:14;;;;;;;11.40;3.80;;;;;;;;;;5133475;27;20444;-54
2020/12/25 05:17:42;;;;;;;10.48;4.53;;;;;;;;;;5136229;28;20189;-54
2020/12/25 05:20:09;;;;;;;17.10;5.00;;;;;;;;;;5130290;27;20204;-54
2020/12/25 05:22:36;;;;;;;13.43;3.75;;;;;;;;;;5117217;28;20206;-55
2020/12/25 05:25:06;;;;;;;11.50;3.88;;;;;;;;;;5116861;28;20171;-55
2020/12/25 05:27:33;;;;;;;14.55;4.60;;;;;;;;;;5116829;28;20210;-52
2020/12/25 05:30:01;;;;;;;9.70;5.00;;;;;;;;;;5129622;28;20220;-53
2020/12/25 05:32:42;;;;;;;13.38;4.88;;;;;;;;;;5140507;28;20207;-51
2020/12/25 05:35:12;;;;;;;8.48;4.28;;;;;;;;;;5134920;28;20221;-57
2020/12/25 05:37:39;;;;;;;13.80;5.45;;;;;;;;;;5141466;28;20217;-53
2020/12/25 05:40:36;;;;;;;18.55;4.32;;;;;;;;;;5141282;27;20190;-53
2020/12/25 05:43:05;;;;;;;14.68;4.95;;;;;;;;;;5139425;28;20221;-55
2020/12/25 05:45:33;;;;;;;7.68;4.30;;;;;;;;;;5141558;28;20202;-56
2020/12/25 05:48:22;;;;;;;9.90;3.95;;;;;;;;;;5140692;28;20231;-58
2020/12/25 05:50:49;;;;;;;7.80;3.58;;;;;;;;;;5140893;28;20226;-50
2020/12/25 05:53:16;;;;;;;12.48;3.40;;;;;;;;;;5141305;27;20174;-60
2020/12/25 05:55:48;;;;;;;8.27;3.22;;;;;;;;;;5141142;28;20215;-54
2020/12/25 05:58:15;;;;;;;10.63;4.78;;;;;;;;;;5141342;27;20206;-55
2020/12/25 06:00:43;;;;;;;8.77;3.70;;;;;;;;;;5140549;28;20210;-50
2020/12/25 06:03:19;;;;;;;10.30;3.67;;;;;;;;;;5140957;27;20248;-58
2020/12/25 06:05:46;;;;;;;10.82;4.60;;;;;;;;;;5130284;28;20195;-55
2020/12/25 06:08:16;;;;;;;11.00;4.15;;;;;;;;;;5136116;28;20207;-51
2020/12/25 06:10:59;;;;;;;17.35;5.40;;;;;;;;;;5139827;28;20209;-57
2020/12/25 06:13:32;;;;;;;9.75;5.05;;;;;;;;;;5140277;27;20201;-60
2020/12/25 06:16:00;;;;;;;12.82;5.45;;;;;;;;;;5139433;27;20190;-59
2020/12/25 06:18:33;;;;;;;9.52;4.47;;;;;;;;;;5140419;28;20187;-48
2020/12/25 06:21:01;;;;;;;10.23;4.88;;;;;;;;;;5149576;27;20181;-55
2020/12/25 06:23:30;;;;;;;9.32;5.20;;;;;;;;;;5160752;27;20226;-56
2020/12/25 06:26:06;;;;;;;20.75;5.07;;;;;;;;;;5154745;27;20186;-55
2020/12/25 06:28:33;;;;;;;13.30;5.50;;;;;;;;;;5132193;27;20245;-53
2020/12/25 06:31:01;;;;;;;12.93;5.82;;;;;;;;;;5139799;28;20225;-53
2020/12/25 06:33:28;;;;;;;17.25;7.80;;;;;;;;;;5124882;28;20191;-48
2020/12/25 06:35:58;;;;;;;14.82;7.22;;;;;;;;;;5119286;28;20220;-56
2020/12/25 06:38:27;;;;;;;13.90;5.13;;;;;;;;;;5119484;28;20174;-49
2020/12/25 06:40:58;;;;;;;25.85;6.40;;;;;;;;;;5146237;27;20212;-60
2020/12/25 06:43:25;;;;;;;13.23;4.55;;;;;;;;;;5133587;27;20330;-53
2020/12/25 06:46:16;;;;;;;9.05;3.72;;;;;;;;;;5141999;27;20190;-52
2020/12/25 06:48:43;;;;;;;11.63;3.88;;;;;;;;;;5118801;28;20186;-59
2020/12/25 06:51:11;;;;;;;11.32;4.70;;;;;;;;;;5135334;27;20243;-56
2020/12/25 06:53:39;;;;;;;7.32;3.85;;;;;;;;;;5159956;27;20186;-55
2020/12/25 06:56:13;;;;;;;18.17;5.07;;;;;;;;;;5146965;27;20207;-59
2020/12/25 06:58:49;;;;;;;10.70;4.40;;;;;;;;;;5127151;28;20193;-58
2020/12/25 07:01:18;;;;;;;16.27;4.15;;;;;;;;;;5118820;28;20233;-59
2020/12/25 07:03:45;;;;;;;11.43;5.22;;;;;;;;;;5155476;27;20266;-60
2020/12/25 07:06:27;;;;;;;9.02;4.15;;;;;;;;;;5151330;27;20182;-59
2020/12/25 07:08:54;;;;;;;9.50;4.72;;;;;;;;;;5118453;28;20219;-55
2020/12/25 07:11:21;;;;;;;13.00;4.47;;;;;;;;;;5134731;27;20214;-55
2020/12/25 07:13:55;;;;;;;15.45;5.75;;;;;;;;;;5139084;28;20179;-54
2020/12/25 07:16:22;;;;;;;12.55;4.50;;;;;;;;;;5138878;28;20212;-57
2020/12/25 07:18:50;;;;;;;13.85;4.93;;;;;;;;;;5139052;28;20232;-53
2020/12/25 07:21:34;;;;;;;13.10;4.03;;;;;;;;;;5138642;27;20187;-56
2020/12/25 07:24:01;;;;;;;14.57;4.55;;;;;;;;;;5137206;28;20221;-52
2020/12/25 07:26:28;;;;;;;14.25;6.03;;;;;;;;;;5139192;27;20194;-53
2020/12/25 07:28:57;;;;;;;12.43;4.30;;;;;;;;;;5135037;28;20203;-52
2020/12/25 07:31:24;;;;;;;12.45;4.10;;;;;;;;;;5118508;28;20216;-54
2020/12/25 07:33:58;;;;;;;14.98;4.55;;;;;;;;;;5117817;28;20188;-55
2020/12/25 07:36:25;;;;;;;13.02;3.78;;;;;;;;;;5118143;28;20202;-59
2020/12/25 07:39:00;;;;;;;10.50;3.80;;;;;;;;;;5117958;28;20204;-53
2020/12/25 07:41:27;;;;;;;11.35;4.10;;;;;;;;;;5129215;28;20214;-60
2020/12/25 07:43:55;;;;;;;9.45;3.83;;;;;;;;;;5138370;28;20219;-48
2020/12/25 07:46:38;;;;;;;12.48;3.58;;;;;;;;;;5129821;28;20214;-59
2020/12/25 07:49:07;;;;;;;7.93;4.35;;;;;;;;;;5117845;28;20257;-56
2020/12/25 07:51:34;;;;;;;13.15;3.65;;;;;;;;;;5117434;28;20259;-54
2020/12/25 07:54:18;;;;;;;13.15;4.82;;;;;;;;;;5132822;28;20189;-59
2020/12/25 07:56:46;;;;;;;12.20;4.72;;;;;;;;;;5137395;28;20253;-54
2020/12/25 07:59:12;;;;;;;13.73;5.00;;;;;;;;;;5134446;28;20202;-52
2020/12/25 08:02:04;;;;;;;13.80;4.35;;;;;;;;;;5116658;28;20172;-50
2020/12/25 08:04:35;;;;;;;13.68;3.22;;;;;;;;;;5122734;28;20214;-59
2020/12/25 08:07:02;;;;;;;9.75;4.13;;;;;;;;;;5131535;28;20195;-55
2020/12/25 08:09:40;;;;;;;13.82;5.50;;;;;;;;;;5125383;28;20219;-57
2020/12/25 08:12:08;;;;;;;13.73;3.83;;;;;;;;;;5116903;28;20235;-57
2020/12/25 08:14:37;;;;;;;8.55;3.47;;;;;;;;;;5116742;28;20203;-53
2020/12/25 08:17:12;;;;;;;7.57;2.83;;;;;;;;;;5122184;27;20195;-57
2020/12/25 08:19:44;;;;;;;12.98;3.70;;;;;;;;;;5137135;27;20212;-55
2020/12/25 08:22:11;;;;;;;20.20;4.13;;;;;;;;;;5126358;28;20203;-50
2020/12/25 08:24:56;;;;;;;8.27;4.13;;;;;;;;;;5134048;28;20260;-60
2020/12/25 08:27:23;;;;;;;11.30;3.80;;;;;;;;;;5120707;28;20202;-57
2020/12/25 08:29:50;;;;;;;10.73;4.10;;;;;;;;;;5115623;28;20212;-53
2020/12/25 08:32:29;;;;;;;11.63;5.47;;;;;;;;;;5116218;28;20207;-58
2020/12/25 08:35:17;;;;;;;10.95;4.25;;;;;;;;;;5119111;28;20203;-61
2020/12/25 08:37:54;;;;;;;8.30;4.15;;;;;;;;;;5131335;28;20233;-55
2020/12/25 08:40:31;;;;;;;12.48;5.55;;;;;;;;;;5125434;28;20305;-56
2020/12/25 08:43:10;;;;;;;11.18;4.22;;;;;;;;;;5116440;28;20198;-57
2020/12/25 08:46:05;;;;;;;15.13;5.25;;;;;;;;;;5116163;28;20210;-60
2020/12/25 08:48:33;;;;;;;24.17;5.32;;;;;;;;;;5073072;27;20530;-56
2020/12/25 08:51:09;;;;;;;7.15;3.75;;;;;;;;;;5136766;28;20230;-55
2020/12/25 08:53:37;;;;;;;7.75;4.10;;;;;;;;;;5128380;28;20195;-53
2020/12/25 08:56:15;;;;;;;9.18;4.28;;;;;;;;;;5115828;28;20214;-60
2020/12/25 08:58:41;;;;;;;10.35;4.57;;;;;;;;;;5116046;28;20198;-56
2020/12/25 09:01:08;;;;;;;12.93;4.07;;;;;;;;;;5116106;28;20254;-47
2020/12/25 09:03:41;;;;;;;14.68;5.80;;;;;;;;;;5132760;28;20187;-55
2020/12/25 09:06:08;;;;;;;10.15;3.97;;;;;;;;;;5136451;28;20203;-57
2020/12/25 09:08:36;;;;;;;5.32;3.40;;;;;;;;;;5135927;28;20216;-52
2020/12/25 09:11:13;;;;;;;14.05;5.28;;;;;;;;;;5136308;28;20218;-57
2020/12/25 09:13:41;;;;;;;12.80;4.78;;;;;;;;;;5136907;28;20198;-53
2020/12/25 09:16:08;;;;;;;6.70;3.30;;;;;;;;;;5136194;28;20217;-49
2020/12/25 09:18:46;;;;;;;19.20;4.22;;;;;;;;;;5136324;27;20194;-59
2020/12/25 09:21:13;;;;;;;8.80;3.70;;;;;;;;;;5123604;28;20188;-53
2020/12/25 09:23:42;;;;;;;8.68;3.85;;;;;;;;;;5115651;28;20231;-58
2020/12/25 09:26:16;;;;;;;6.63;3.67;;;;;;;;;;5115999;28;20223;-55
2020/12/25 09:28:43;;;;;;;7.47;3.90;;;;;;;;;;5119800;28;20199;-55
2020/12/25 09:31:12;;;;;;;12.95;3.42;;;;;;;;;;5116822;28;20222;-54
2020/12/25 09:33:54;;;;;;;6.28;2.97;;;;;;;;;;5115865;28;20189;-57
2020/12/25 09:36:21;;;;;;;6.70;2.20;;;;;;;;;;5115608;28;20190;-53
2020/12/25 09:38:48;;;;;;;10.27;3.00;;;;;;;;;;5122065;27;20206;-56
2020/12/25 09:41:16;;;;;;;6.85;2.25;;;;;;;;;;5137010;27;20206;-59
2020/12/25 09:43:43;;;;;;;6.55;2.90;;;;;;;;;;5136994;27;20182;-57
2020/12/25 09:46:15;;;;;;;9.40;2.25;;;;;;;;;;5136617;28;20202;-58
2020/12/25 09:48:42;;;;;;;13.95;2.50;;;;;;;;;;5136278;27;20191;-55
2020/12/25 09:51:08;;;;;;;10.20;2.15;;;;;;;;;;5136204;27;20215;-55
2020/12/25 09:53:58;;;;;;;8.38;3.60;;;;;;;;;;5136357;27;20191;-49
2020/12/25 09:56:28;;;;;;;9.73;2.92;;;;;;;;;;5134851;27;20238;-56
2020/12/25 09:58:55;;;;;;;6.75;2.58;;;;;;;;;;5137089;27;20199;-54
2020/12/25 10:01:22;;;;;;;9.20;3.65;;;;;;;;;;5136847;28;20214;-53
2020/12/25 10:03:49;;;;;;;6.30;3.50;;;;;;;;;;5136261;28;20204;-57
2020/12/25 10:06:21;;;;;;;15.20;3.58;;;;;;;;;;5126864;28;20191;-58
2020/12/25 10:08:48;;;;;;;10.32;3.85;;;;;;;;;;5135203;28;20207;-51
2020/12/25 10:11:19;;;;;;;9.30;6.00;;;;;;;;;;5135216;28;20230;-60
2020/12/25 10:13:48;;;;;;;9.35;4.35;;;;;;;;;;5135846;28;20203;-58
2020/12/25 10:16:14;;;;;;;11.15;5.82;;;;;;;;;;5132346;28;20203;-56
2020/12/25 10:18:47;;;;;;;11.30;6.88;;;;;;;;;;5139232;28;20180;-55
2020/12/25 10:21:17;;;;;;;13.50;6.43;;;;;;;;;;5139791;28;20214;-59
2020/12/25 10:23:44;;;;;;;15.23;7.72;;;;;;;;;;5138954;28;20206;-50
2020/12/25 10:26:13;;;;;;;11.90;7.78;;;;;;;;;;5138815;28;20195;-56
2020/12/25 10:28:39;;;;;;;15.27;8.35;;;;;;;;;;5138694;28;20207;-55
2020/12/25 10:31:09;;;;;;;18.77;10.32;;;;;;;;;;5135652;28;20237;-58
2020/12/25 10:33:39;;;;;;;15.73;10.50;;;;;;;;;;5139066;28;20215;-49
2020/12/25 10:36:06;;;;;;;24.00;11.10;;;;;;;;;;5124563;28;20239;-56
2020/12/25 10:38:33;;;;;;;20.00;10.95;;;;;;;;;;5135869;28;20206;-54
2020/12/25 10:41:07;;;;;;;16.77;12.95;;;;;;;;;;5131112;28;20219;-57
2020/12/25 10:43:35;;;;;;;19.08;11.80;;;;;;;;;;5138646;28;20198;-60
2020/12/25 10:46:02;;;;;;;18.30;12.02;;;;;;;;;;5120254;28;20207;-58
2020/12/25 10:48:32;;;;;;;17.73;11.57;;;;;;;;;;5118525;28;20192;-56
2020/12/25 10:50:59;;;;;;;15.77;9.48;;;;;;;;;;5118374;28;20212;-60
2020/12/25 10:53:27;;;;;;;23.15;9.75;;;;;;;;;;5132625;27;20210;-57
2020/12/25 10:56:00;;;;;;;16.73;9.77;;;;;;;;;;5138642;28;20285;-55
2020/12/25 10:58:27;;;;;;;46.17;12.50;;;;;;;;;;5117986;28;20201;-51
2020/12/25 11:00:54;;;;;;;20.98;10.55;;;;;;;;;;5123825;28;20214;-53
2020/12/25 11:03:22;;;;;;;15.27;9.55;;;;;;;;;;5137422;28;20198;-57
2020/12/25 11:05:49;;;;;;;18.45;7.93;;;;;;;;;;5130281;28;20215;-52
2020/12/25 11:08:16;;;;;;;13.75;9.15;;;;;;;;;;5117053;28;20208;-56
2020/12/25 11:10:44;;;;;;;15.23;8.27;;;;;;;;;;5117327;28;20223;-58
2020/12/25 11:13:11;;;;;;;14.05;8.95;;;;;;;;;;5116583;28;20256;-58
2020/12/25 11:15:40;;;;;;;17.52;9.45;;;;;;;;;;5117722;28;20216;-51
2020/12/25 11:18:25;;;;;;;14.27;8.20;;;;;;;;;;5117824;28;20203;-54
2020/12/25 11:20:53;;;;;;;11.63;7.80;;;;;;;;;;5117132;28;20204;-59
2020/12/25 11:23:20;;;;;;;11.43;7.07;;;;;;;;;;5117254;28;20216;-54
2020/12/25 11:25:59;;;;;;;13.27;8.25;;;;;;;;;;5120573;28;20210;-54
2020/12/25 11:28:26;;;;;;;13.85;7.43;;;;;;;;;;5138686;28;20203;-52
2020/12/25 11:30:53;;;;;;;10.93;7.55;;;;;;;;;;5137985;27;20219;-55
2020/12/25 11:36:24;;;;;;;9.15;5.68;;;;;;;;;;5128288;28;20249;-48
2020/12/25 11:38:53;;;;;;;13.68;6.80;;;;;;;;;;5141522;27;20199;-55
2020/12/25 11:41:44;;;;;;;14.00;6.75;;;;;;;;;;5118599;28;20220;-50
2020/12/25 11:44:11;;;;;;;13.75;6.95;;;;;;;;;;5116674;28;20219;-55
2020/12/25 11:46:38;;;;;;;13.90;5.63;;;;;;;;;;5137041;28;20202;-52
2020/12/25 11:49:14;;;;;;;11.18;6.15;;;;;;;;;;5133716;28;20207;-56
2020/12/25 11:51:41;;;;;;;15.38;7.22;;;;;;;;;;5125840;28;20216;-58
2020/12/25 11:54:08;;;;;;;11.18;7.03;;;;;;;;;;5134574;28;20195;-56
2020/12/25 11:56:45;;;;;;;14.18;6.72;;;;;;;;;;5135332;28;20186;-55
2020/12/25 11:59:25;;;;;;;10.07;6.53;;;;;;;;;;5130882;28;20235;-60
2020/12/25 12:01:52;;;;;;;22.95;6.22;;;;;;;;;;5130524;28;20205;-57
2020/12/25 12:04:20;;;;;;;14.75;4.70;;;;;;;;;;5135516;28;20208;-56
2020/12/25 12:06:48;;;;;;;6.18;4.75;;;;;;;;;;5133056;28;20203;-57
2020/12/25 12:09:43;;;;;;;9.23;5.55;;;;;;;;;;5133940;28;20247;-54
2020/12/25 12:12:28;;;;;;;10.98;5.68;;;;;;;;;;5129969;27;20243;-54
2020/12/25 12:15:07;;;;;;;15.73;4.85;;;;;;;;;;5137557;28;20199;-55
2020/12/25 12:17:34;;;;;;;10.82;4.47;;;;;;;;;;5119252;28;20214;-54
2020/12/25 12:20:08;;;;;;;11.38;4.55;;;;;;;;;;5135845;28;20231;-57
2020/12/25 12:22:43;;;;;;;8.38;3.83;;;;;;;;;;5128099;28;20211;-49
2020/12/25 12:25:10;;;;;;;9.52;3.22;;;;;;;;;;5132916;27;20188;-58
2020/12/25 12:27:37;;;;;;;10.07;4.10;;;;;;;;;;5116179;28;20200;-51
2020/12/25 12:33:11;;;;;;;16.58;5.22;;;;;;;;;;5135258;28;20189;-50
2020/12/25 12:35:41;;;;;;;13.13;6.18;;;;;;;;;;5128021;27;20187;-58
2020/12/25 12:38:28;;;;;;;9.15;5.13;;;;;;;;;;5137087;27;20215;-56
2020/12/25 12:41:10;;;;;;;8.30;4.72;;;;;;;;;;5132647;28;20262;-58
2020/12/25 12:43:38;;;;;;;11.15;4.72;;;;;;;;;;5118686;28;20210;-60
2020/12/25 12:46:25;;;;;;;11.68;4.25;;;;;;;;;;5126219;28;20180;-58
2020/12/25 12:49:39;;;;;;;7.18;4.28;;;;;;;;;;5136425;28;20204;-59
2020/12/25 12:52:11;;;;;;;12.57;5.53;;;;;;;;;;5135111;28;20256;-54
2020/12/25 12:54:57;;;;;;;11.20;5.43;;;;;;;;;;5136176;28;20192;-55
2020/12/25 12:57:26;;;;;;;16.42;6.28;;;;;;;;;;5131229;28;20195;-52
2020/12/25 12:59:57;;;;;;;9.90;6.90;;;;;;;;;;5136817;28;20199;-58
2020/12/25 13:02:40;;;;;;;10.68;6.15;;;;;;;;;;5136120;28;20195;-59
2020/12/25 13:05:08;;;;;;;8.88;4.82;;;;;;;;;;5127828;28;20231;-54
2020/12/25 13:07:34;;;;;;;10.55;4.68;;;;;;;;;;5115549;28;20192;-60
2020/12/25 13:10:38;;;;;;;7.57;4.60;;;;;;;;;;5115877;28;20183;-56
2020/12/25 13:13:06;;;;;;;13.00;3.70;;;;;;;;;;5127498;27;20280;-55
2020/12/25 13:15:34;;;;;;;9.90;3.65;;;;;;;;;;5136414;28;20210;-55
2020/12/25 13:18:08;;;;;;;14.10;3.13;;;;;;;;;;5119076;28;20186;-53
2020/12/25 13:20:42;;;;;;;15.38;5.68;;;;;;;;;;5118325;28;20203;-56
2020/12/25 13:23:09;;;;;;;7.70;4.22;;;;;;;;;;5131125;28;20190;-54
2020/12/25 13:26:08;;;;;;;12.63;4.15;;;;;;;;;;5135716;28;20338;-57
2020/12/25 13:28:36;;;;;;;8.48;4.50;;;;;;;;;;5134827;27;20192;-54
2020/12/25 13:31:03;;;;;;;24.92;4.45;;;;;;;;;;5136113;27;20227;-50
2020/12/25 13:33:33;;;;;;;13.52;3.17;;;;;;;;;;5123914;28;20225;-54
2020/12/25 13:36:00;;;;;;;5.50;2.90;;;;;;;;;;5111427;28;20214;-58
2020/12/25 13:38:29;;;;;;;9.50;3.35;;;;;;;;;;5113987;28;20194;-58
2020/12/25 13:40:56;;;;;;;12.32;3.70;;;;;;;;;;5108282;28;20196;-59
2020/12/25 13:43:23;;;;;;;11.93;3.40;;;;;;;;;;5093973;28;20204;-55
2020/12/25 13:45:52;;;;;;;9.50;3.85;;;;;;;;;;5109607;28;20205;-60
2020/12/25 13:48:19;;;;;;;7.65;3.65;;;;;;;;;;5103233;28;20184;-52
2020/12/25 13:50:45;;;;;;;16.95;4.07;;;;;;;;;;5114063;28;20223;-56
2020/12/25 13:53:25;;;;;;;12.40;4.43;;;;;;;;;;5116542;28;20219;-58
2020/12/25 13:55:52;;;;;;;9.88;5.00;;;;;;;;;;5097351;28;20206;-53
2020/12/25 13:58:19;;;;;;;7.55;4.20;;;;;;;;;;5096774;28;20210;-51
2020/12/25 14:00:58;;;;;;;9.70;4.93;;;;;;;;;;5109235;28;20239;-52
2020/12/25 14:03:25;;;;;;;13.48;6.07;;;;;;;;;;5130346;28;20198;-50
2020/12/25 14:05:52;;;;;;;8.65;5.30;;;;;;;;;;5139035;28;20210;-57
2020/12/25 14:08:19;;;;;;;6.63;4.20;;;;;;;;;;5127139;28;20192;-55
2020/12/25 14:10:46;;;;;;;12.38;5.25;;;;;;;;;;5109778;28;20216;-48
2020/12/25 14:13:16;;;;;;;16.17;4.75;;;;;;;;;;5117058;28;20218;-50
2020/12/25 14:15:42;;;;;;;8.35;4.10;;;;;;;;;;5116520;28;20204;-56
2020/12/25 14:18:20;;;;;;;9.93;4.25;;;;;;;;;;5118816;28;20219;-58
2020/12/25 14:20:56;;;;;;;21.05;7.30;;;;;;;;;;5127619;28;20209;-57
2020/12/25 14:23:23;;;;;;;13.30;5.95;;;;;;;;;;5152205;27;20236;-57
2020/12/25 14:25:51;;;;;;;7.60;3.78;;;;;;;;;;5158952;27;20195;-59
2020/12/25 14:28:45;;;;;;;16.27;4.20;;;;;;;;;;5145595;27;20202;-58
2020/12/25 14:31:16;;;;;;;10.52;3.80;;;;;;;;;;5136157;28;20227;-56
2020/12/25 14:33:43;;;;;;;16.52;6.20;;;;;;;;;;5138391;28;20444;-59
2020/12/25 14:36:33;;;;;;;11.60;4.60;;;;;;;;;;5139021;28;20290;-51
2020/12/25 14:39:00;;;;;;;16.27;4.70;;;;;;;;;;5136506;28;20226;-56
2020/12/25 14:41:27;;;;;;;10.38;4.60;;;;;;;;;;5137590;28;20277;-56
2020/12/25 14:43:55;;;;;;;8.63;4.28;;;;;;;;;;5121713;28;20218;-52
2020/12/25 14:46:22;;;;;;;10.75;3.95;;;;;;;;;;5124607;28;20239;-57
2020/12/25 14:49:01;;;;;;;10.10;3.70;;;;;;;;;;5117219;28;20223;-54
2020/12/25 14:51:28;;;;;;;6.68;3.10;;;;;;;;;;5117152;28;20228;-51
2020/12/25 14:53:55;;;;;;;9.38;2.75;;;;;;;;;;5116511;28;20233;-57
2020/12/25 14:56:39;;;;;;;7.45;2.40;;;;;;;;;;5116799;28;20207;-55
2020/12/25 14:59:06;;;;;;;6.47;2.92;;;;;;;;;;5140778;27;20290;-54
2020/12/25 15:01:35;;;;;;;6.47;2.47;;;;;;;;;;5157626;27;20214;-55
2020/12/25 15:04:22;;;;;;;7.63;2.72;;;;;;;;;;5157465;27;20207;-49
2020/12/25 15:06:50;;;;;;;17.08;2.78;;;;;;;;;;5154402;27;20215;-59
2020/12/25 15:09:17;;;;;;;7.43;2.50;;;;;;;;;;5138988;27;20198;-51
2020/12/25 15:11:51;;;;;;;11.88;3.08;;;;;;;;;;5138276;28;20224;-53
2020/12/25 15:14:17;;;;;;;9.60;4.28;;;;;;;;;;5137633;28;20200;-55
2020/12/25 15:16:44;;;;;;;20.80;7.63;;;;;;;;;;5138151;28;20207;-54
2020/12/25 15:19:23;;;;;;;19.35;7.72;;;;;;;;;;5136887;27;20190;-55
2020/12/25 15:21:53;;;;;;;14.27;5.00;;;;;;;;;;5137318;28;20203;-58
2020/12/25 15:24:20;;;;;;;9.18;4.35;;;;;;;;;;5137595;28;20351;-50
2020/12/25 15:27:00;;;;;;;14.00;3.25;;;;;;;;;;5138511;28;20667;-60
2020/12/25 15:29:26;;;;;;;9.23;2.95;;;;;;;;;;5137986;27;20219;-52
2020/12/25 15:31:54;;;;;;;5.38;1.92;;;;;;;;;;5138300;27;20235;-54
2020/12/25 15:34:23;;;;;;;12.38;2.70;;;;;;;;;;5138495;28;20218;-51
2020/12/25 15:36:58;;;;;;;12.18;6.10;;;;;;;;;;5137837;28;20202;-48
2020/12/25 15:39:25;;;;;;;12.55;3.90;;;;;;;;;;5137465;28;20205;-50
2020/12/25 15:42:03;;;;;;;23.25;8.00;;;;;;;;;;5136220;28;20189;-57
2020/12/25 15:44:32;;;;;;;17.25;8.05;;;;;;;;;;5116472;28;20207;-49